Time;durP1;ratioP1;P1;durP2;ratioP2;P2;SDS_P1;SDS_P2;PMS_P1;PMS_P2;Temp;Humidity;BMP_temperature;BMP_pressure;BME280_temperature;BME280_humidity;BME280_pressure;Samples;Min_cycle;Max_cycle;Signal;HPM_P1;HPM_P2
2023/09/14 00:00:21;;;;;;;;;;;;;;;23.12;100.00;98135.31;5081190;28;19928;-78
2023/09/14 00:02:48;;;;;;;;;;;;;;;23.16;100.00;98133.53;5081400;28;19917;-78
2023/09/14 00:05:15;;;;;;;;;;;;;;;23.21;100.00;98141.47;5083736;28;19935;-78
2023/09/14 00:07:42;;;;;;;;;;;;;;;23.39;100.00;98129.25;5102689;28;19947;-78
2023/09/14 00:10:09;;;;;;;;;;;;;;;23.40;100.00;98128.09;5100630;28;19924;-78
2023/09/14 00:12:36;;;;;;;;;;;;;;;23.35;100.00;98131.03;5098947;28;19928;-78
2023/09/14 00:15:02;;;;;;;;;;;;;;;23.31;100.00;98138.28;5099486;28;19924;-78
2023/09/14 00:17:29;;;;;;;;;;;;;;;23.42;100.00;98135.97;5090708;28;20023;-78
2023/09/14 00:19:55;;;;;;;;;;;;;;;23.52;100.00;98130.81;5098800;28;19924;-78
2023/09/14 00:22:22;;;;;;;;;;;;;;;23.58;100.00;98126.72;5102343;28;19924;-78
2023/09/14 00:24:50;;;;;;;;;;;;;;;23.63;100.00;98133.91;5102242;28;20311;-78
2023/09/14 00:27:17;;;;;;;;;;;;;;;23.64;100.00;98139.00;5099334;28;19924;-78
2023/09/14 00:29:44;;;;;;;;;;;;;;;23.65;100.00;98140.59;5098701;28;19924;-78
2023/09/14 00:32:12;;;;;;;;;;;;;;;23.64;100.00;98139.00;5100997;28;19925;-78
2023/09/14 00:37:18;;;;;;;;;;;;;;;23.61;100.00;98139.69;5081137;28;19946;-78
2023/09/14 00:39:45;;;;;;;;;;;;;;;23.60;100.00;98140.03;5098765;28;19924;-78
2023/09/14 00:42:11;;;;;;;;;;;;;;;23.59;100.00;98136.50;5099683;28;19960;-78
2023/09/14 00:44:39;;;;;;;;;;;;;;;23.59;100.00;98147.41;5101938;28;19932;-78
2023/09/14 00:47:06;;;;;;;;;;;;;;;23.57;100.00;98143.44;5081984;28;19960;-78
2023/09/14 00:49:32;;;;;;;;;;;;;;;23.58;100.00;98145.81;5080325;28;19959;-78
2023/09/14 00:51:58;;;;;;;;;;;;;;;23.58;100.00;98145.81;5080579;28;19924;-78
2023/09/14 00:54:25;;;;;;;;;;;;;;;23.55;100.00;98146.50;5101967;28;19935;-78
2023/09/14 00:56:51;;;;;;;;;;;;;;;23.55;100.00;98148.47;5101852;28;19931;-78
2023/09/14 01:02:19;;;;;;;;;;;;;;;23.49;100.00;98147.88;5083663;28;19928;-78
2023/09/14 01:04:45;;;;;;;;;;;;;;;23.51;100.00;98145.63;5084102;28;20351;-78
2023/09/14 01:07:15;;;;;;;;;;;;;;;23.47;100.00;98150.16;5099236;28;19924;-78
2023/09/14 01:09:43;;;;;;;;;;;;;;;23.43;100.00;98143.78;5098308;28;19924;-78
2023/09/14 01:12:27;;;;;;;;;;;;;;;23.47;100.00;98155.59;5082214;28;19925;-78
2023/09/14 01:15:11;;;;;;;;;;;;;;;23.42;100.00;98141.41;5101711;28;20321;-78
2023/09/14 01:17:42;;;;;;;;;;;;;;;23.43;100.00;98148.44;5089994;28;19928;-77
2023/09/14 01:23:05;;;;;;;;;;;;;;;23.41;100.00;98148.78;5100899;28;19928;-77
2023/09/14 01:25:39;;;;;;;;;;;;;;;23.38;100.00;98154.88;5098347;28;19925;-77
2023/09/14 01:28:09;;;;;;;;;;;;;;;23.39;100.00;98158.41;5081078;28;19988;-78
2023/09/14 01:30:41;;;;;;;;;;;;;;;23.39;100.00;98151.06;5083527;28;19920;-78
2023/09/14 01:33:11;;;;;;;;;;;;;;;23.36;100.00;98154.44;5099873;28;19924;-78
2023/09/14 01:35:40;;;;;;;;;;;;;;;23.34;100.00;98155.91;5080177;28;19924;-78
2023/09/14 01:38:08;;;;;;;;;;;;;;;23.34;100.00;98151.25;5099710;28;19971;-78
2023/09/14 01:40:36;;;;;;;;;;;;;;;23.34;100.00;98161.34;5101780;28;19931;-78
2023/09/14 01:43:37;;;;;;;;;;;;;;;23.33;100.00;98160.56;5079716;28;19931;-78
2023/09/14 01:46:03;;;;;;;;;;;;;;;23.30;100.00;98158.53;5084045;28;19947;-77
2023/09/14 01:48:30;;;;;;;;;;;;;;;23.23;100.00;98152.84;5106376;28;19920;-77
2023/09/14 01:50:56;;;;;;;;;;;;;;;23.22;100.00;98150.44;5123232;28;19942;-77
2023/09/14 01:53:23;;;;;;;;;;;;;;;23.25;100.00;98157.94;5104819;28;19932;-77
2023/09/14 01:55:49;;;;;;;;;;;;;;;23.23;100.00;98147.38;5104868;28;20023;-77
2023/09/14 01:58:15;;;;;;;;;;;;;;;23.20;100.00;98145.34;5105010;28;19928;-77
2023/09/14 02:00:44;;;;;;;;;;;;;;;23.15;100.00;98147.50;5087445;28;19924;-77
2023/09/14 02:03:11;;;;;;;;;;;;;;;23.15;100.00;98153.72;5103131;28;19947;-77
2023/09/14 02:08:19;;;;;;;;;;;;;;;23.18;100.00;98155.75;5108416;28;19928;-77
2023/09/14 02:10:45;;;;;;;;;;;;;;;23.17;100.00;98154.19;5094523;28;19946;-77
2023/09/14 02:13:14;;;;;;;;;;;;;;;23.16;100.00;98155.31;5085149;28;19924;-77
2023/09/14 02:15:41;;;;;;;;;;;;;;;23.12;100.00;98148.94;5109770;28;19924;-77
2023/09/14 02:23:29;;;;;;;;;;;;;;;23.06;100.00;98155.75;5108443;28;19972;-77
2023/09/14 02:25:56;;;;;;;;;;;;;;;23.00;100.00;98171.53;5101194;28;20233;-78
2023/09/14 02:28:24;;;;;;;;;;;;;;;22.81;100.00;98170.47;5086772;28;20149;-77
2023/09/14 02:30:53;;;;;;;;;;;;;;;22.89;100.00;98167.66;5104778;28;19924;-77
2023/09/14 02:33:20;;;;;;;;;;;;;;;22.91;100.00;98170.03;5101079;28;19932;-78
2023/09/14 02:35:50;;;;;;;;;;;;;;;22.88;100.00;98170.69;5101026;28;19925;-77
2023/09/14 02:38:17;;;;;;;;;;;;;;;22.87;100.00;98180.03;5085707;28;20003;-77
2023/09/14 02:40:43;;;;;;;;;;;;;;;22.88;100.00;98176.94;5104171;28;19930;-78
2023/09/14 02:43:10;;;;;;;;;;;;;;;22.88;100.00;98181.59;5084175;28;19924;-77
2023/09/14 02:45:36;;;;;;;;;;;;;;;22.90;100.00;98184.78;5100725;28;19952;-77
2023/09/14 02:48:03;;;;;;;;;;;;;;;22.87;100.00;98175.34;5080515;28;19925;-77
2023/09/14 02:50:30;;;;;;;;;;;;;;;22.88;100.00;98184.31;5082421;28;19931;-77
2023/09/14 02:52:57;;;;;;;;;;;;;;;22.89;100.00;98185.91;5100937;28;19927;-78
2023/09/14 02:55:23;;;;;;;;;;;;;;;22.88;100.00;98187.03;5104036;28;19973;-78
2023/09/14 02:57:49;;;;;;;;;;;;;;;22.81;100.00;98182.13;5103869;28;19958;-78
2023/09/14 03:00:17;;;;;;;;;;;;;;;22.81;100.00;98193.03;5083353;28;19929;-78
2023/09/14 03:02:44;;;;;;;;;;;;;;;22.80;100.00;98186.00;5082402;28;19924;-78
2023/09/14 03:05:11;;;;;;;;;;;;;;;22.80;100.00;98194.19;5102626;28;19934;-78
2023/09/14 03:07:39;;;;;;;;;;;;;;;22.75;100.00;98204.47;5103844;28;19924;-77
2023/09/14 03:10:06;;;;;;;;;;;;;;;22.77;100.00;98203.03;5101730;28;19924;-78
2023/09/14 03:12:31;;;;;;;;;;;;;;;22.74;100.00;98206.41;5100840;28;19925;-78
2023/09/14 03:14:58;;;;;;;;;;;;;;;22.68;100.00;98199.59;5101187;28;19948;-78
2023/09/14 03:17:27;;;;;;;;;;;;;;;22.66;100.00;98201.03;5075247;28;20393;-78
2023/09/14 03:19:54;;;;;;;;;;;;;;;22.64;100.00;98209.50;5105853;28;19947;-78
2023/09/14 03:22:22;;;;;;;;;;;;;;;22.64;100.00;98214.16;5107754;28;19971;-78
2023/09/14 03:24:50;;;;;;;;;;;;;;;22.67;100.00;98219.75;5107280;28;19921;-77
2023/09/14 03:27:16;;;;;;;;;;;;;;;22.67;100.00;98219.75;5109849;28;19954;-77
2023/09/14 03:29:43;;;;;;;;;;;;;;;22.58;100.00;98222.53;5109233;28;19908;-77
2023/09/14 03:32:09;;;;;;;;;;;;;;;22.53;100.00;98220.00;5103761;28;19934;-77
2023/09/14 03:34:35;;;;;;;;;;;;;;;22.45;100.00;98229.03;5083352;28;19928;-78
2023/09/14 03:37:02;;;;;;;;;;;;;;;22.29;100.00;98233.47;5084039;28;19963;-78
2023/09/14 03:39:28;;;;;;;;;;;;;;;22.33;100.00;98231.69;5103918;28;19924;-77
2023/09/14 03:41:56;;;;;;;;;;;;;;;22.40;100.00;98226.53;5103662;28;19955;-77
2023/09/14 03:44:22;;;;;;;;;;;;;;;22.38;100.00;98234.22;5099893;28;19936;-77
2023/09/14 03:46:49;;;;;;;;;;;;;;;22.34;100.00;98227.88;5091659;28;20030;-77
2023/09/14 03:49:15;;;;;;;;;;;;;;;22.29;100.00;98232.69;5081736;28;19924;-77
2023/09/14 03:51:41;;;;;;;;;;;;;;;22.33;100.00;98231.69;5099672;28;19924;-77
2023/09/14 03:54:08;;;;;;;;;;;;;;;22.37;100.00;98229.91;5101690;28;19925;-77
2023/09/14 03:56:34;;;;;;;;;;;;;;;22.34;100.00;98233.31;5103325;28;19924;-77
2023/09/14 03:59:02;;;;;;;;;;;;;;;22.35;100.00;98234.06;5103658;28;19924;-77
2023/09/14 04:01:29;;;;;;;;;;;;;;;22.34;100.00;98232.50;5100148;28;19935;-78
2023/09/14 04:03:55;;;;;;;;;;;;;;;22.21;100.00;98239.78;5100291;28;19948;-77
2023/09/14 04:06:22;;;;;;;;;;;;;;;22.19;100.00;98241.25;5095645;28;19939;-77
2023/09/14 04:08:48;;;;;;;;;;;;;;;21.78;100.00;98242.75;5119586;28;19924;-77
2023/09/14 04:11:14;;;;;;;;;;;;;;;21.87;100.00;98239.97;5100741;28;19970;-77
2023/09/14 04:13:41;;;;;;;;;;;;;;;21.49;100.00;98251.66;5100290;28;19935;-76
2023/09/14 04:16:09;;;;;;;;;;;;;;;21.20;100.00;98240.72;5099595;28;19925;-77
2023/09/14 04:18:37;;;;;;;;;;;;;;;20.87;100.00;98242.34;5072980;28;19924;-77
2023/09/14 04:21:03;;;;;;;;;;;;;;;21.09;100.00;98250.34;5098906;28;19924;-77
2023/09/14 04:23:30;;;;;;;;;;;;;;;21.06;100.00;98253.66;5098313;28;19928;-77
2023/09/14 04:25:57;;;;;;;;;;;;;;;20.75;100.00;98253.06;5099350;28;19924;-78
2023/09/14 04:28:23;;;;;;;;;;;;;;;20.62;100.00;98254.81;5102433;28;19933;-78
2023/09/14 04:30:50;;;;;;;;;;;;;;;20.60;100.00;98267.13;5102122;28;19956;-78
2023/09/14 04:33:19;;;;;;;;;;;;;;;20.53;100.00;98255.94;5099301;28;19984;-78
2023/09/14 04:35:46;;;;;;;;;;;;;;;20.63;100.00;98253.72;5098984;28;19932;-78
2023/09/14 04:38:13;;;;;;;;;;;;;;;20.48;100.00;98266.97;5100884;28;19925;-78
2023/09/14 04:40:41;;;;;;;;;;;;;;;20.32;100.00;98266.63;5084446;28;19955;-78
2023/09/14 04:43:08;;;;;;;;;;;;;;;19.76;100.00;98268.22;5082653;28;19924;-77
2023/09/14 04:45:35;;;;;;;;;;;;;;;20.00;100.00;98275.94;5099290;28;19931;-78
2023/09/14 04:48:01;;;;;;;;;;;;;;;19.98;100.00;98275.47;5078175;28;19968;-78
2023/09/14 04:50:29;;;;;;;;;;;;;;;19.98;100.00;98272.75;5080697;28;19947;-78
2023/09/14 04:52:56;;;;;;;;;;;;;;;20.35;100.00;98271.41;5098636;28;19921;-78
2023/09/14 04:55:22;;;;;;;;;;;;;;;20.56;100.00;98275.09;5093736;28;20468;-78
2023/09/14 04:57:48;;;;;;;;;;;;;;;19.99;100.00;98278.97;5084070;28;19920;-78
2023/09/14 05:00:15;;;;;;;;;;;;;;;20.11;100.00;98277.25;5098997;28;19935;-78
2023/09/14 05:02:41;;;;;;;;;;;;;;;20.15;100.00;98289.03;5079927;28;19931;-78
2023/09/14 05:05:09;;;;;;;;;;;;;;;20.06;100.00;98285.50;5081957;28;19957;-78
2023/09/14 05:07:49;;;;;;;;;;;;;;;19.61;100.00;98292.22;5101996;28;19920;-78
2023/09/14 05:10:16;;;;;;;;;;;;;;;19.76;100.00;98281.75;5081359;28;19924;-78
2023/09/14 05:12:44;;;;;;;;;;;;;;;19.84;100.00;98296.44;5080506;28;19947;-78
2023/09/14 05:15:10;;;;;;;;;;;;;;;19.64;100.00;98289.69;5080476;28;19924;-77
2023/09/14 05:17:37;;;;;;;;;;;;;;;19.89;100.00;98290.91;5090071;28;19948;-77
2023/09/14 05:20:06;;;;;;;;;;;;;;;20.68;100.00;98283.41;5099254;28;19924;-77
2023/09/14 05:22:32;;;;;;;;;;;;;;;20.95;100.00;98290.44;5101749;28;19924;-77
2023/09/14 05:25:00;;;;;;;;;;;;;;;21.01;100.00;98289.16;5083599;28;19924;-77
2023/09/14 05:27:26;;;;;;;;;;;;;;;21.09;100.00;98298.41;5098477;28;19924;-78
2023/09/14 05:29:53;;;;;;;;;;;;;;;21.31;100.00;98295.50;5080487;28;19951;-78
2023/09/14 05:32:19;;;;;;;;;;;;;;;21.16;100.00;98291.38;5088553;28;19946;-78
2023/09/14 05:34:45;;;;;;;;;;;;;;;21.12;100.00;98295.06;5086976;28;19963;-78
2023/09/14 05:37:14;;;;;;;;;;;;;;;20.77;100.00;98299.69;5103877;28;20015;-78
2023/09/14 05:39:41;;;;;;;;;;;;;;;20.93;100.00;98303.50;5102426;28;20413;-77
2023/09/14 05:42:08;;;;;;;;;;;;;;;20.99;100.00;98302.22;5086319;28;19925;-78
2023/09/14 05:44:35;;;;;;;;;;;;;;;21.16;100.00;98306.88;5105464;28;19924;-77
2023/09/14 05:47:02;;;;;;;;;;;;;;;20.97;100.00;98297.13;5096175;28;19928;-78
2023/09/14 05:49:29;;;;;;;;;;;;;;;20.62;100.00;98300.97;5102263;28;19938;-78
2023/09/14 05:51:55;;;;;;;;;;;;;;;20.63;100.00;98307.19;5084281;28;19928;-77
2023/09/14 05:54:22;;;;;;;;;;;;;;;20.88;100.00;98300.97;5097004;28;19924;-77
2023/09/14 05:56:48;;;;;;;;;;;;;;;20.80;100.00;98304.47;5105322;28;19931;-77
2023/09/14 05:59:17;;;;;;;;;;;;;;;20.78;100.00;98304.00;5102529;28;19940;-77
2023/09/14 06:01:43;;;;;;;;;;;;;;;20.58;100.00;98312.78;5083739;28;19975;-77
2023/09/14 06:04:20;;;;;;;;;;;;;;;20.50;100.00;98319.78;5103674;28;19951;-78
2023/09/14 06:06:47;;;;;;;;;;;;;;;20.48;100.00;98318.50;5105741;28;19932;-78
2023/09/14 06:09:13;;;;;;;;;;;;;;;20.20;100.00;98323.38;5102874;28;19927;-78
2023/09/14 06:11:40;;;;;;;;;;;;;;;20.12;100.00;98314.06;5083601;28;19924;-78
2023/09/14 06:14:06;;;;;;;;;;;;;;;20.05;100.00;98311.06;5103072;28;19924;-78
2023/09/14 06:16:34;;;;;;;;;;;;;;;20.14;100.00;98320.00;5099694;28;19924;-78
2023/09/14 06:19:00;;;;;;;;;;;;;;;20.40;100.00;98326.31;5101426;28;19960;-78
2023/09/14 06:21:27;;;;;;;;;;;;;;;20.38;100.00;98319.59;5083610;28;19926;-78
2023/09/14 06:23:53;;;;;;;;;;;;;;;20.43;100.00;98322.97;5101259;28;20366;-79
2023/09/14 06:26:20;;;;;;;;;;;;;;;20.24;100.00;98319.69;5086758;28;19924;-78
2023/09/14 06:28:46;;;;;;;;;;;;;;;20.79;100.00;98316.47;5086937;28;19924;-78
2023/09/14 06:31:13;;;;;;;;;;;;;;;20.88;100.00;98317.25;5102110;28;19924;-78
2023/09/14 06:33:40;;;;;;;;;;;;;;;20.76;100.00;98319.81;5100908;28;19973;-78
2023/09/14 06:36:07;;;;;;;;;;;;;;;20.31;100.00;98324.69;5102357;28;19936;-77
2023/09/14 06:38:33;;;;;;;;;;;;;;;20.39;100.00;98324.69;5104511;28;19955;-77
2023/09/14 06:40:59;;;;;;;;;;;;;;;20.35;100.00;98323.75;5103656;28;20010;-77
2023/09/14 06:43:26;;;;;;;;;;;;;;;20.16;100.00;98327.81;5082716;28;19932;-77
2023/09/14 06:45:52;;;;;;;;;;;;;;;20.40;100.00;98331.72;5098309;28;19997;-77
2023/09/14 06:48:31;;;;;;;;;;;;;;;20.16;100.00;98325.91;5082530;28;19920;-78
2023/09/14 06:50:59;;;;;;;;;;;;;;;20.27;100.00;98326.47;5083016;28;19925;-77
2023/09/14 06:53:25;;;;;;;;;;;;;;;20.36;100.00;98325.34;5086366;28;19966;-78
2023/09/14 06:55:52;;;;;;;;;;;;;;;20.65;100.00;98323.94;5104207;28;19924;-78
2023/09/14 06:58:18;;;;;;;;;;;;;;;20.65;100.00;98327.47;5083102;28;19924;-77
2023/09/14 07:00:45;;;;;;;;;;;;;;;20.77;100.00;98318.69;5101858;28;19925;-78
2023/09/14 07:03:11;;;;;;;;;;;;;;;20.99;100.00;98318.50;5086520;28;19924;-78
2023/09/14 07:05:38;;;;;;;;;;;;;;;21.28;100.00;98323.31;5088255;28;19920;-78
2023/09/14 07:08:06;;;;;;;;;;;;;;;21.32;100.00;98327.00;5086886;28;19938;-78
2023/09/14 07:10:33;;;;;;;;;;;;;;;21.42;100.00;98329.34;5102205;28;19929;-78
2023/09/14 07:12:59;;;;;;;;;;;;;;;21.43;100.00;98326.31;5102566;28;19951;-78
2023/09/14 07:15:25;;;;;;;;;;;;;;;21.23;100.00;98329.69;5087510;28;19934;-78
2023/09/14 07:17:52;;;;;;;;;;;;;;;21.33;100.00;98332.09;5079727;28;19924;-78
2023/09/14 07:20:18;;;;;;;;;;;;;;;21.28;100.00;98336.91;5104802;28;19920;-78
2023/09/14 07:22:45;;;;;;;;;;;;;;;20.94;100.00;98333.06;5105252;28;19953;-78
2023/09/14 07:25:12;;;;;;;;;;;;;;;20.57;100.00;98346.44;5084086;28;19948;-78
2023/09/14 07:27:39;;;;;;;;;;;;;;;20.71;100.00;98337.03;5100316;28;19984;-77
2023/09/14 07:30:06;;;;;;;;;;;;;;;20.91;100.00;98346.47;5083163;28;19924;-77
2023/09/14 07:32:33;;;;;;;;;;;;;;;21.01;100.00;98344.22;5085698;28;19974;-77
2023/09/14 07:35:01;;;;;;;;;;;;;;;20.81;100.00;98347.59;5103024;28;19956;-78
2023/09/14 07:37:27;;;;;;;;;;;;;;;20.56;100.00;98355.69;5082032;28;19924;-79
2023/09/14 07:39:53;;;;;;;;;;;;;;;20.28;100.00;98347.81;5099898;28;19947;-78
2023/09/14 07:42:21;;;;;;;;;;;;;;;20.04;100.00;98355.53;5102902;28;19947;-77
2023/09/14 07:44:57;;;;;;;;;;;;;;;20.11;100.00;98357.78;5093313;28;19924;-78
2023/09/14 07:47:28;;;;;;;;;;;;;;;20.08;100.00;98361.94;5081545;28;19935;-78
2023/09/14 07:49:54;;;;;;;;;;;;;;;20.53;100.00;98359.03;5081570;28;19932;-78
2023/09/14 07:52:21;;;;;;;;;;;;;;;20.27;100.00;98350.88;5102682;28;19924;-78
2023/09/14 07:54:48;;;;;;;;;;;;;;;20.49;100.00;98360.81;5103051;28;19924;-77
2023/09/14 07:57:14;;;;;;;;;;;;;;;20.77;100.00;98356.69;5082214;28;19924;-77
2023/09/14 07:59:42;;;;;;;;;;;;;;;20.82;100.00;98361.97;5099145;28;20296;-78
2023/09/14 08:02:21;;;;;;;;;;;;;;;20.94;100.00;98359.41;5083223;28;19955;-77
2023/09/14 08:04:48;;;;;;;;;;;;;;;20.76;100.00;98371.38;5102662;28;19920;-77
2023/09/14 08:07:15;;;;;;;;;;;;;;;20.87;100.00;98364.53;5100067;28;19924;-77
2023/09/14 08:09:43;;;;;;;;;;;;;;;20.88;100.00;98376.97;5099788;28;19924;-77
2023/09/14 08:12:10;;;;;;;;;;;;;;;21.09;100.00;98372.53;5101823;28;19934;-78
2023/09/14 08:14:37;;;;;;;;;;;;;;;21.08;100.00;98376.34;5103355;28;19924;-78
2023/09/14 08:17:05;;;;;;;;;;;;;;;20.80;100.00;98377.75;5111872;28;19925;-79
2023/09/14 08:19:31;;;;;;;;;;;;;;;20.78;100.00;98386.22;5100439;28;19924;-77
2023/09/14 08:21:59;;;;;;;;;;;;;;;20.87;100.00;98388.94;5081855;28;19924;-77
2023/09/14 08:24:25;;;;;;;;;;;;;;;20.73;100.00;98388.31;5119426;28;19924;-78
2023/09/14 08:26:52;;;;;;;;;;;;;;;20.76;100.00;98387.69;5104678;28;19924;-78
2023/09/14 08:29:18;;;;;;;;;;;;;;;20.89;100.00;98387.50;5100990;28;19931;-78
2023/09/14 08:31:45;;;;;;;;;;;;;;;21.14;100.00;98382.44;5101303;28;20264;-78
2023/09/14 08:34:13;;;;;;;;;;;;;;;21.04;100.00;98385.47;5102023;28;19970;-78
2023/09/14 08:36:39;;;;;;;;;;;;;;;21.11;100.00;98388.50;5103515;28;19931;-78
2023/09/14 08:39:06;;;;;;;;;;;;;;;21.09;100.00;98388.03;5100516;28;20311;-78
2023/09/14 08:41:35;;;;;;;;;;;;;;;21.34;100.00;98389.94;5081600;28;19931;-76
2023/09/14 08:44:02;;;;;;;;;;;;;;;21.31;100.00;98394.09;5082237;28;19931;-77
2023/09/14 08:46:29;;;;;;;;;;;;;;;21.22;100.00;98401.47;5097866;28;19924;-77
2023/09/14 08:48:56;;;;;;;;;;;;;;;21.29;100.00;98409.13;5080878;28;19924;-78
2023/09/14 08:51:25;;;;;;;;;;;;;;;21.27;100.00;98405.91;5094022;28;19936;-78
2023/09/14 08:53:53;;;;;;;;;;;;;;;21.30;100.00;98406.09;5102637;28;19924;-78
2023/09/14 08:56:20;;;;;;;;;;;;;;;21.26;100.00;98407.84;5099708;28;19924;-78
2023/09/14 08:58:47;;;;;;;;;;;;;;;21.32;100.00;98411.22;5081473;28;19924;-77
2023/09/14 09:01:14;;;;;;;;;;;;;;;21.49;100.00;98412.00;5083315;28;19931;-77
2023/09/14 09:03:40;;;;;;;;;;;;;;;21.55;100.00;98407.19;5102421;28;19924;-78
2023/09/14 09:06:08;;;;;;;;;;;;;;;21.56;100.00;98407.97;5100792;28;19950;-78
2023/09/14 09:08:36;;;;;;;;;;;;;;;21.15;100.00;98409.28;5080379;28;19929;-78
2023/09/14 09:11:03;;;;;;;;;;;;;;;20.97;100.00;98413.09;5081562;28;19926;-77
2023/09/14 09:13:33;;;;;;;;;;;;;;;20.86;100.00;98412.59;5084182;28;19934;-77
2023/09/14 09:16:00;;;;;;;;;;;;;;;20.97;100.00;98402.22;5093594;28;19956;-79
2023/09/14 09:18:26;;;;;;;;;;;;;;;20.59;100.00;98410.13;5094578;28;19967;-79
2023/09/14 09:20:52;;;;;;;;;;;;;;;20.55;100.00;98405.69;5102179;28;19924;-77
2023/09/14 09:23:20;;;;;;;;;;;;;;;20.69;100.00;98401.72;5080868;28;19974;-77
2023/09/14 09:25:49;;;;;;;;;;;;;;;21.15;100.00;98393.00;5098395;28;19925;-77
2023/09/14 09:28:15;;;;;;;;;;;;;;;21.16;100.00;98405.47;5101233;28;19936;-78
2023/09/14 09:30:42;;;;;;;;;;;;;;;21.37;100.00;98411.03;5101323;28;19920;-78
2023/09/14 09:33:08;;;;;;;;;;;;;;;21.65;100.00;98406.03;5101238;28;19926;-77
2023/09/14 09:35:35;;;;;;;;;;;;;;;21.75;100.00;98408.44;5098800;28;19928;-78
2023/09/14 09:38:09;;;;;;;;;;;;;;;21.80;100.00;98409.06;5099102;28;19936;-78
2023/09/14 09:40:40;;;;;;;;;;;;;;;21.82;100.00;98395.13;5083727;28;19924;-78
2023/09/14 09:43:08;;;;;;;;;;;;;;;22.10;100.00;98398.28;5100007;28;20507;-79
2023/09/14 09:45:35;;;;;;;;;;;;;;;22.05;100.00;98399.25;5080048;28;19929;-79
2023/09/14 09:48:01;;;;;;;;;;;;;;;21.98;100.00;98393.50;5098723;28;19924;-79
2023/09/14 09:50:28;;;;;;;;;;;;;;;21.65;100.00;98397.88;5083258;28;19971;-77
2023/09/14 09:52:54;;;;;;;;;;;;;;;21.42;100.00;98394.56;5100182;28;19949;-77
2023/09/14 09:55:22;;;;;;;;;;;;;;;21.47;100.00;98400.66;5097903;28;19931;-78
2023/09/14 09:57:49;;;;;;;;;;;;;;;21.45;100.00;98399.34;5079908;28;19925;-78
2023/09/14 10:00:19;;;;;;;;;;;;;;;21.45;100.00;98407.50;5082550;28;19971;-78
2023/09/14 10:02:46;;;;;;;;;;;;;;;21.58;100.00;98405.72;5101745;28;19923;-78
2023/09/14 10:05:12;;;;;;;;;;;;;;;21.98;100.00;98401.66;5081256;28;19985;-79
2023/09/14 10:07:40;;;;;;;;;;;;;;;22.19;100.00;98405.25;5080018;28;19951;-78
2023/09/14 10:10:07;;;;;;;;;;;;;;;22.11;100.00;98402.59;5080987;28;19925;-78
2023/09/14 10:12:37;;;;;;;;;;;;;;;22.01;100.00;98409.19;5083109;28;19935;-77
2023/09/14 10:15:14;;;;;;;;;;;;;;;21.59;100.00;98401.91;5100411;28;19956;-79
2023/09/14 10:17:42;;;;;;;;;;;;;;;21.68;100.00;98399.97;5089330;28;19924;-77
2023/09/14 10:20:09;;;;;;;;;;;;;;;21.93;100.00;98401.84;5079824;28;19955;-78
2023/09/14 10:22:36;;;;;;;;;;;;;;;21.43;100.00;98404.31;5101272;28;19924;-77
2023/09/14 10:25:04;;;;;;;;;;;;;;;21.51;100.00;98400.78;5102045;28;19924;-78
2023/09/14 10:27:31;;;;;;;;;;;;;;;21.49;100.00;98400.31;5103658;28;20415;-78
2023/09/14 10:29:58;;;;;;;;;;;;;;;21.25;100.00;98398.09;5087167;28;19954;-78
2023/09/14 10:32:26;;;;;;;;;;;;;;;21.47;100.00;98403.38;5101442;28;19928;-78
2023/09/14 10:34:57;;;;;;;;;;;;;;;21.46;100.00;98401.75;5101572;28;19924;-78
2023/09/14 10:37:24;;;;;;;;;;;;;;;21.32;100.00;98400.34;5101008;28;19920;-78
2023/09/14 10:39:51;;;;;;;;;;;;;;;21.37;100.00;98400.97;5101272;28;19924;-78
2023/09/14 10:42:20;;;;;;;;;;;;;;;21.18;100.00;98395.06;5085983;28;19958;-78
2023/09/14 10:44:47;;;;;;;;;;;;;;;21.44;100.00;98397.78;5104248;28;19924;-78
2023/09/14 10:47:15;;;;;;;;;;;;;;;21.50;100.00;98400.00;5093967;28;19924;-78
2023/09/14 10:49:43;;;;;;;;;;;;;;;21.26;100.00;98396.19;5101222;28;19954;-78
2023/09/14 10:52:11;;;;;;;;;;;;;;;21.26;100.00;98402.41;5102743;28;19924;-78
2023/09/14 10:54:38;;;;;;;;;;;;;;;21.51;100.00;98404.31;5104376;28;19935;-78
2023/09/14 10:57:13;;;;;;;;;;;;;;;21.66;100.00;98402.22;5103459;28;19985;-78
2023/09/14 10:59:46;;;;;;;;;;;;;;;21.49;100.00;98400.31;5099457;28;20237;-78
2023/09/14 11:02:13;;;;;;;;;;;;;;;21.60;100.00;98395.34;5084350;28;19960;-78
2023/09/14 11:04:54;;;;;;;;;;;;;;;21.63;100.00;98392.78;5102846;28;19924;-77
2023/09/14 11:07:35;;;;;;;;;;;;;;;21.70;100.00;98397.72;5100691;28;19942;-77
2023/09/14 11:10:09;;;;;;;;;;;;;;;22.11;100.00;98388.97;5083005;28;19968;-78
2023/09/14 11:12:35;;;;;;;;;;;;;;;22.04;100.00;98387.56;5119850;28;19977;-77
2023/09/14 11:15:12;;;;;;;;;;;;;;;22.07;100.00;98388.84;5084989;28;19924;-77
2023/09/14 11:17:41;;;;;;;;;;;;;;;21.90;100.00;98397.06;5092220;28;19924;-78
2023/09/14 11:20:29;;;;;;;;;;;;;;;21.89;100.00;98392.75;5083785;28;19954;-78
2023/09/14 11:22:59;;;;;;;;;;;;;;;22.03;100.00;98382.47;5119331;28;19931;-78
2023/09/14 11:25:27;;;;;;;;;;;;;;;21.89;100.00;98390.00;5100444;28;19931;-78
2023/09/14 11:27:54;;;;;;;;;;;;;;;22.10;100.00;98373.81;5100181;28;19921;-78
2023/09/14 11:30:21;;;;;;;;;;;;;;;21.87;100.00;98381.38;5085307;28;19926;-78
2023/09/14 11:32:48;;;;;;;;;;;;;;;21.82;100.00;98385.03;5085178;28;19924;-77
2023/09/14 11:35:15;;;;;;;;;;;;;;;22.01;100.00;98388.22;5083129;28;19948;-79
2023/09/14 11:37:41;;;;;;;;;;;;;;;22.15;100.00;98381.78;5081667;28;19931;-78
2023/09/14 11:40:12;;;;;;;;;;;;;;;21.88;100.00;98382.97;5082990;28;19932;-78
2023/09/14 11:42:57;;;;;;;;;;;;;;;21.88;100.00;98380.25;5085358;28;19923;-79
2023/09/14 11:45:42;;;;;;;;;;;;;;;21.88;100.00;98372.91;5098420;28;19924;-78
2023/09/14 11:48:13;;;;;;;;;;;;;;;21.74;100.00;98374.19;5092957;28;19982;-78
2023/09/14 11:50:44;;;;;;;;;;;;;;;21.77;100.00;98377.06;5102992;28;19977;-77
2023/09/14 11:53:17;;;;;;;;;;;;;;;21.63;100.00;98381.13;5085160;28;19920;-77
2023/09/14 11:55:44;;;;;;;;;;;;;;;21.80;100.00;98372.91;5100645;28;19952;-78
2023/09/14 11:58:25;;;;;;;;;;;;;;;21.85;100.00;98370.03;5083905;28;19947;-79
2023/09/14 12:01:00;;;;;;;;;;;;;;;21.92;100.00;98371.13;5103809;28;19946;-79
2023/09/14 12:03:27;;;;;;;;;;;;;;;22.22;100.00;98365.75;5086485;28;19928;-78
2023/09/14 12:05:55;;;;;;;;;;;;;;;22.22;100.00;98357.59;5103217;28;19924;-77
2023/09/14 12:08:32;;;;;;;;;;;;;;;22.40;100.00;98369.97;5098842;28;20030;-78
2023/09/14 12:11:14;;;;;;;;;;;;;;;22.18;100.00;98370.22;5090466;28;19929;-77
2023/09/14 12:13:49;;;;;;;;;;;;;;;22.11;100.00;98365.31;5104743;28;19966;-78
2023/09/14 12:16:21;;;;;;;;;;;;;;;22.52;100.00;98368.13;5078815;28;19959;-78
2023/09/14 12:18:48;;;;;;;;;;;;;;;22.82;100.00;98363.47;5104224;28;19946;-77
2023/09/14 12:21:15;;;;;;;;;;;;;;;22.40;100.00;98365.31;5085667;28;19950;-78
2023/09/14 12:23:42;;;;;;;;;;;;;;;22.24;100.00;98363.47;5083206;28;19924;-78
2023/09/14 12:26:10;;;;;;;;;;;;;;;22.30;100.00;98354.81;5084844;28;19956;-77
2023/09/14 12:28:37;;;;;;;;;;;;;;;22.26;100.00;98358.50;5104099;28;19935;-78
2023/09/14 12:31:06;;;;;;;;;;;;;;;22.27;100.00;98357.38;5102056;28;19924;-78
2023/09/14 12:33:34;;;;;;;;;;;;;;;22.40;100.00;98359.88;5099827;28;19925;-78
2023/09/14 12:36:04;;;;;;;;;;;;;;;22.66;100.00;98354.28;5099691;28;19928;-78
2023/09/14 12:38:31;;;;;;;;;;;;;;;22.59;100.00;98354.00;5084627;28;19924;-78
2023/09/14 12:41:12;;;;;;;;;;;;;;;22.30;100.00;98352.09;5100478;28;19931;-78
2023/09/14 12:43:41;;;;;;;;;;;;;;;22.52;100.00;98359.97;5080233;28;19929;-78
2023/09/14 12:46:26;;;;;;;;;;;;;;;22.57;100.00;98351.59;5089507;28;19966;-78
2023/09/14 12:48:59;;;;;;;;;;;;;;;22.60;100.00;98356.38;5081291;28;19924;-78
2023/09/14 12:51:36;;;;;;;;;;;;;;;22.48;100.00;98347.34;5081209;28;19947;-78
2023/09/14 12:54:02;;;;;;;;;;;;;;;22.38;100.00;98348.50;5086786;28;19924;-78
2023/09/14 12:56:30;;;;;;;;;;;;;;;22.58;100.00;98349.69;5102271;28;19931;-79